Terminal Aerodrome Forecast
Issued by NWS

Home | Current Version | Previous Version | Text Only | Print | Product List | Glossary Off
Versions: 1 2 3 4 5 6 7 8 9 10 11 12 13 14 15 16 17

962
FTUS43 KBIS 020314 AAA
TAFDIK
TAF AMD
KDIK 020314Z 0203/0224 VRB03KT P6SM OVC020
     FM020700 VRB03KT 5SM BR OVC008
     FM020900 VRB03KT 2SM BR OVC003
     FM021300 25006KT P6SM BKN008=

USA.gov is the U.S. government's official web portal to all federal, state and local government web resources and services.